sensor_id;sensor_type;location;lat;lon;timestamp;P1;durP1;ratioP1;P2;durP2;ratioP2
12687;SDS011;6408;59.388;17.798;2023-11-21T00:01:41;5.27;;;3.87;;
12687;SDS011;6408;59.388;17.798;2023-11-21T00:04:17;4.57;;;3.50;;
12687;SDS011;6408;59.388;17.798;2023-11-21T00:06:44;6.43;;;2.87;;
12687;SDS011;6408;59.388;17.798;2023-11-21T00:09:25;3.77;;;2.80;;
12687;SDS011;6408;59.388;17.798;2023-11-21T00:11:58;6.57;;;3.07;;
12687;SDS011;6408;59.388;17.798;2023-11-21T00:14:26;3.07;;;2.67;;
12687;SDS011;6408;59.388;17.798;2023-11-21T00:16:55;3.77;;;2.87;;
12687;SDS011;6408;59.388;17.798;2023-11-21T00:19:26;4.33;;;2.73;;
12687;SDS011;6408;59.388;17.798;2023-11-21T00:21:54;3.43;;;2.90;;
12687;SDS011;6408;59.388;17.798;2023-11-21T00:24:26;3.13;;;2.80;;
12687;SDS011;6408;59.388;17.798;2023-11-21T00:27:07;3.00;;;2.37;;
12687;SDS011;6408;59.388;17.798;2023-11-21T00:29:37;6.47;;;2.97;;
12687;SDS011;6408;59.388;17.798;2023-11-21T00:32:06;3.17;;;2.47;;
12687;SDS011;6408;59.388;17.798;2023-11-21T00:34:34;3.40;;;2.77;;
12687;SDS011;6408;59.388;17.798;2023-11-21T00:37:02;6.30;;;2.43;;
12687;SDS011;6408;59.388;17.798;2023-11-21T00:39:33;5.37;;;2.80;;
12687;SDS011;6408;59.388;17.798;2023-11-21T00:42:00;3.03;;;2.40;;
12687;SDS011;6408;59.388;17.798;2023-11-21T00:44:30;2.90;;;1.97;;
12687;SDS011;6408;59.388;17.798;2023-11-21T00:46:59;3.07;;;2.40;;
12687;SDS011;6408;59.388;17.798;2023-11-21T00:49:28;2.73;;;2.30;;
12687;SDS011;6408;59.388;17.798;2023-11-21T00:51:58;2.30;;;1.93;;
12687;SDS011;6408;59.388;17.798;2023-11-21T00:54:26;2.57;;;2.13;;
12687;SDS011;6408;59.388;17.798;2023-11-21T00:56:57;2.80;;;2.30;;
12687;SDS011;6408;59.388;17.798;2023-11-21T00:59:24;2.67;;;1.97;;
12687;SDS011;6408;59.388;17.798;2023-11-21T01:01:52;2.30;;;2.10;;
12687;SDS011;6408;59.388;17.798;2023-11-21T01:04:19;2.17;;;1.87;;
12687;SDS011;6408;59.388;17.798;2023-11-21T01:06:52;2.83;;;2.30;;
12687;SDS011;6408;59.388;17.798;2023-11-21T01:09:19;2.77;;;2.30;;
12687;SDS011;6408;59.388;17.798;2023-11-21T01:11:50;2.13;;;1.93;;
12687;SDS011;6408;59.388;17.798;2023-11-21T01:14:22;2.20;;;2.00;;
12687;SDS011;6408;59.388;17.798;2023-11-21T01:16:57;2.80;;;2.17;;
12687;SDS011;6408;59.388;17.798;2023-11-21T01:19:27;3.10;;;2.10;;
12687;SDS011;6408;59.388;17.798;2023-11-21T01:21:55;2.30;;;2.00;;
12687;SDS011;6408;59.388;17.798;2023-11-21T01:24:26;2.40;;;2.10;;
12687;SDS011;6408;59.388;17.798;2023-11-21T01:27:01;3.07;;;2.27;;
12687;SDS011;6408;59.388;17.798;2023-11-21T01:29:35;2.07;;;1.83;;
12687;SDS011;6408;59.388;17.798;2023-11-21T01:32:08;9.97;;;2.80;;
12687;SDS011;6408;59.388;17.798;2023-11-21T01:34:35;4.97;;;2.13;;
12687;SDS011;6408;59.388;17.798;2023-11-21T01:37:05;2.80;;;2.47;;
12687;SDS011;6408;59.388;17.798;2023-11-21T01:39:34;4.23;;;2.30;;
12687;SDS011;6408;59.388;17.798;2023-11-21T01:42:03;3.13;;;2.50;;
12687;SDS011;6408;59.388;17.798;2023-11-21T01:44:38;2.60;;;2.40;;
12687;SDS011;6408;59.388;17.798;2023-11-21T01:47:07;3.67;;;2.27;;
12687;SDS011;6408;59.388;17.798;2023-11-21T01:49:36;2.80;;;2.50;;
12687;SDS011;6408;59.388;17.798;2023-11-21T01:52:04;2.70;;;2.13;;
12687;SDS011;6408;59.388;17.798;2023-11-21T01:54:34;3.07;;;2.33;;
12687;SDS011;6408;59.388;17.798;2023-11-21T01:57:02;3.63;;;2.57;;
12687;SDS011;6408;59.388;17.798;2023-11-21T01:59:36;2.80;;;2.13;;
12687;SDS011;6408;59.388;17.798;2023-11-21T02:02:07;4.93;;;2.57;;
12687;SDS011;6408;59.388;17.798;2023-11-21T02:04:38;3.37;;;2.07;;
12687;SDS011;6408;59.388;17.798;2023-11-21T02:07:06;2.33;;;2.03;;
12687;SDS011;6408;59.388;17.798;2023-11-21T02:09:38;4.43;;;2.57;;
12687;SDS011;6408;59.388;17.798;2023-11-21T02:12:13;2.53;;;2.23;;
12687;SDS011;6408;59.388;17.798;2023-11-21T02:14:44;2.60;;;2.07;;
12687;SDS011;6408;59.388;17.798;2023-11-21T02:17:12;2.80;;;2.10;;
12687;SDS011;6408;59.388;17.798;2023-11-21T02:19:49;2.90;;;2.23;;
12687;SDS011;6408;59.388;17.798;2023-11-21T02:22:17;2.47;;;2.27;;
12687;SDS011;6408;59.388;17.798;2023-11-21T02:24:51;2.07;;;1.87;;
12687;SDS011;6408;59.388;17.798;2023-11-21T02:27:18;3.20;;;2.10;;
12687;SDS011;6408;59.388;17.798;2023-11-21T02:29:49;2.37;;;2.17;;
12687;SDS011;6408;59.388;17.798;2023-11-21T02:32:16;2.80;;;2.20;;
12687;SDS011;6408;59.388;17.798;2023-11-21T02:34:48;2.47;;;1.90;;
12687;SDS011;6408;59.388;17.798;2023-11-21T02:37:17;2.87;;;2.13;;
12687;SDS011;6408;59.388;17.798;2023-11-21T02:42:59;2.63;;;2.20;;
12687;SDS011;6408;59.388;17.798;2023-11-21T02:45:27;2.83;;;2.27;;
12687;SDS011;6408;59.388;17.798;2023-11-21T02:47:55;2.67;;;2.33;;
12687;SDS011;6408;59.388;17.798;2023-11-21T02:50:24;2.77;;;2.10;;
12687;SDS011;6408;59.388;17.798;2023-11-21T02:52:52;2.57;;;2.20;;
12687;SDS011;6408;59.388;17.798;2023-11-21T02:55:21;3.90;;;2.30;;
12687;SDS011;6408;59.388;17.798;2023-11-21T02:57:50;3.87;;;2.30;;
12687;SDS011;6408;59.388;17.798;2023-11-21T03:00:21;2.30;;;2.10;;
12687;SDS011;6408;59.388;17.798;2023-11-21T03:02:51;2.37;;;2.03;;
12687;SDS011;6408;59.388;17.798;2023-11-21T03:05:21;5.27;;;2.17;;
12687;SDS011;6408;59.388;17.798;2023-11-21T03:07:50;2.77;;;2.17;;
12687;SDS011;6408;59.388;17.798;2023-11-21T03:10:27;2.97;;;2.30;;
12687;SDS011;6408;59.388;17.798;2023-11-21T03:12:54;2.60;;;2.40;;
12687;SDS011;6408;59.388;17.798;2023-11-21T03:15:35;2.97;;;2.67;;
12687;SDS011;6408;59.388;17.798;2023-11-21T03:18:03;2.97;;;2.37;;
12687;SDS011;6408;59.388;17.798;2023-11-21T03:20:30;2.57;;;2.37;;
12687;SDS011;6408;59.388;17.798;2023-11-21T03:22:57;2.77;;;2.23;;
12687;SDS011;6408;59.388;17.798;2023-11-21T03:25:27;2.30;;;2.03;;
12687;SDS011;6408;59.388;17.798;2023-11-21T03:27:56;3.77;;;2.27;;
12687;SDS011;6408;59.388;17.798;2023-11-21T03:30:24;2.67;;;2.40;;
12687;SDS011;6408;59.388;17.798;2023-11-21T03:32:56;2.53;;;2.00;;
12687;SDS011;6408;59.388;17.798;2023-11-21T03:35:23;2.43;;;2.23;;
12687;SDS011;6408;59.388;17.798;2023-11-21T03:37:51;3.17;;;2.10;;
12687;SDS011;6408;59.388;17.798;2023-11-21T03:40:19;2.37;;;2.00;;
12687;SDS011;6408;59.388;17.798;2023-11-21T03:42:56;4.00;;;2.50;;
12687;SDS011;6408;59.388;17.798;2023-11-21T03:45:39;3.60;;;2.57;;
12687;SDS011;6408;59.388;17.798;2023-11-21T03:48:43;3.20;;;2.47;;
12687;SDS011;6408;59.388;17.798;2023-11-21T03:51:28;2.40;;;2.20;;
12687;SDS011;6408;59.388;17.798;2023-11-21T03:53:57;2.90;;;2.60;;
12687;SDS011;6408;59.388;17.798;2023-11-21T03:56:25;3.47;;;2.33;;
12687;SDS011;6408;59.388;17.798;2023-11-21T03:58:57;3.27;;;2.60;;
12687;SDS011;6408;59.388;17.798;2023-11-21T04:01:28;3.23;;;2.37;;
12687;SDS011;6408;59.388;17.798;2023-11-21T04:03:56;3.43;;;2.43;;
12687;SDS011;6408;59.388;17.798;2023-11-21T04:06:39;2.50;;;2.27;;
12687;SDS011;6408;59.388;17.798;2023-11-21T04:09:06;3.73;;;2.20;;
12687;SDS011;6408;59.388;17.798;2023-11-21T04:11:34;2.77;;;2.00;;
12687;SDS011;6408;59.388;17.798;2023-11-21T04:14:03;2.43;;;2.23;;
12687;SDS011;6408;59.388;17.798;2023-11-21T04:16:30;2.63;;;2.07;;
12687;SDS011;6408;59.388;17.798;2023-11-21T04:19:01;1.90;;;1.70;;
12687;SDS011;6408;59.388;17.798;2023-11-21T04:21:34;1.70;;;1.60;;
12687;SDS011;6408;59.388;17.798;2023-11-21T04:24:03;2.10;;;1.87;;
12687;SDS011;6408;59.388;17.798;2023-11-21T04:26:31;1.73;;;1.50;;
12687;SDS011;6408;59.388;17.798;2023-11-21T04:28:59;1.90;;;1.70;;
12687;SDS011;6408;59.388;17.798;2023-11-21T04:31:30;1.90;;;1.80;;
12687;SDS011;6408;59.388;17.798;2023-11-21T04:33:58;1.73;;;1.63;;
12687;SDS011;6408;59.388;17.798;2023-11-21T04:36:39;1.50;;;1.40;;
12687;SDS011;6408;59.388;17.798;2023-11-21T04:39:09;1.80;;;1.40;;
12687;SDS011;6408;59.388;17.798;2023-11-21T04:41:39;1.67;;;1.57;;
12687;SDS011;6408;59.388;17.798;2023-11-21T04:44:06;1.30;;;1.20;;
12687;SDS011;6408;59.388;17.798;2023-11-21T04:46:37;2.00;;;1.50;;
12687;SDS011;6408;59.388;17.798;2023-11-21T04:49:10;1.90;;;1.30;;
12687;SDS011;6408;59.388;17.798;2023-11-21T04:51:42;1.50;;;1.30;;
12687;SDS011;6408;59.388;17.798;2023-11-21T04:54:17;2.60;;;1.67;;
12687;SDS011;6408;59.388;17.798;2023-11-21T04:56:45;3.60;;;1.43;;
12687;SDS011;6408;59.388;17.798;2023-11-21T04:59:15;2.10;;;1.60;;
12687;SDS011;6408;59.388;17.798;2023-11-21T05:01:49;1.60;;;1.50;;
12687;SDS011;6408;59.388;17.798;2023-11-21T05:04:16;2.27;;;1.70;;
12687;SDS011;6408;59.388;17.798;2023-11-21T05:07:06;1.60;;;1.50;;
12687;SDS011;6408;59.388;17.798;2023-11-21T05:09:42;1.40;;;1.30;;
12687;SDS011;6408;59.388;17.798;2023-11-21T05:12:14;1.70;;;1.50;;
12687;SDS011;6408;59.388;17.798;2023-11-21T05:14:54;2.27;;;1.67;;
12687;SDS011;6408;59.388;17.798;2023-11-21T05:17:34;1.90;;;1.60;;
12687;SDS011;6408;59.388;17.798;2023-11-21T05:20:07;1.70;;;1.60;;
12687;SDS011;6408;59.388;17.798;2023-11-21T05:22:35;1.97;;;1.60;;
12687;SDS011;6408;59.388;17.798;2023-11-21T05:25:22;1.83;;;1.70;;
12687;SDS011;6408;59.388;17.798;2023-11-21T05:28:06;3.67;;;1.87;;
12687;SDS011;6408;59.388;17.798;2023-11-21T05:30:34;1.70;;;1.60;;
12687;SDS011;6408;59.388;17.798;2023-11-21T05:33:15;3.60;;;1.60;;
12687;SDS011;6408;59.388;17.798;2023-11-21T05:35:43;1.90;;;1.70;;
12687;SDS011;6408;59.388;17.798;2023-11-21T05:38:15;2.17;;;1.70;;
12687;SDS011;6408;59.388;17.798;2023-11-21T05:40:48;1.27;;;1.17;;
12687;SDS011;6408;59.388;17.798;2023-11-21T05:43:17;1.67;;;1.57;;
12687;SDS011;6408;59.388;17.798;2023-11-21T05:45:44;1.83;;;1.50;;
12687;SDS011;6408;59.388;17.798;2023-11-21T05:51:44;1.80;;;1.50;;
12687;SDS011;6408;59.388;17.798;2023-11-21T05:54:13;1.93;;;1.60;;
12687;SDS011;6408;59.388;17.798;2023-11-21T05:56:53;2.80;;;1.60;;
12687;SDS011;6408;59.388;17.798;2023-11-21T05:59:20;2.50;;;1.63;;
12687;SDS011;6408;59.388;17.798;2023-11-21T06:01:48;2.80;;;1.50;;
12687;SDS011;6408;59.388;17.798;2023-11-21T06:04:17;2.43;;;1.77;;
12687;SDS011;6408;59.388;17.798;2023-11-21T06:06:52;2.43;;;1.83;;
12687;SDS011;6408;59.388;17.798;2023-11-21T06:09:21;2.10;;;1.90;;
12687;SDS011;6408;59.388;17.798;2023-11-21T06:12:02;2.10;;;1.90;;
12687;SDS011;6408;59.388;17.798;2023-11-21T06:14:35;2.20;;;2.00;;
12687;SDS011;6408;59.388;17.798;2023-11-21T06:17:09;2.73;;;2.07;;
12687;SDS011;6408;59.388;17.798;2023-11-21T06:19:38;4.00;;;1.93;;
12687;SDS011;6408;59.388;17.798;2023-11-21T06:22:25;2.73;;;2.03;;
12687;SDS011;6408;59.388;17.798;2023-11-21T06:25:00;2.67;;;2.00;;
12687;SDS011;6408;59.388;17.798;2023-11-21T06:27:33;2.17;;;1.70;;
12687;SDS011;6408;59.388;17.798;2023-11-21T06:30:01;2.27;;;1.77;;
12687;SDS011;6408;59.388;17.798;2023-11-21T06:32:29;1.70;;;1.60;;
12687;SDS011;6408;59.388;17.798;2023-11-21T06:34:58;2.63;;;2.20;;
12687;SDS011;6408;59.388;17.798;2023-11-21T06:37:28;2.47;;;2.13;;
12687;SDS011;6408;59.388;17.798;2023-11-21T06:39:58;2.07;;;1.70;;
12687;SDS011;6408;59.388;17.798;2023-11-21T06:42:26;2.03;;;1.80;;
12687;SDS011;6408;59.388;17.798;2023-11-21T06:44:54;2.20;;;2.00;;
12687;SDS011;6408;59.388;17.798;2023-11-21T06:47:24;2.43;;;1.80;;
12687;SDS011;6408;59.388;17.798;2023-11-21T06:49:54;3.37;;;2.07;;
12687;SDS011;6408;59.388;17.798;2023-11-21T06:52:25;2.90;;;2.07;;
12687;SDS011;6408;59.388;17.798;2023-11-21T06:54:54;5.93;;;2.43;;
12687;SDS011;6408;59.388;17.798;2023-11-21T06:57:23;2.40;;;1.80;;
12687;SDS011;6408;59.388;17.798;2023-11-21T06:59:50;2.63;;;2.13;;
12687;SDS011;6408;59.388;17.798;2023-11-21T07:02:18;2.77;;;1.90;;
12687;SDS011;6408;59.388;17.798;2023-11-21T07:04:48;2.37;;;2.10;;
12687;SDS011;6408;59.388;17.798;2023-11-21T07:07:33;2.20;;;1.90;;
12687;SDS011;6408;59.388;17.798;2023-11-21T07:10:04;2.80;;;2.17;;
12687;SDS011;6408;59.388;17.798;2023-11-21T07:12:32;2.10;;;1.90;;
12687;SDS011;6408;59.388;17.798;2023-11-21T07:14:59;2.80;;;2.17;;
12687;SDS011;6408;59.388;17.798;2023-11-21T07:17:28;2.50;;;1.93;;
12687;SDS011;6408;59.388;17.798;2023-11-21T07:19:58;3.23;;;2.27;;
12687;SDS011;6408;59.388;17.798;2023-11-21T07:22:25;3.17;;;2.20;;
12687;SDS011;6408;59.388;17.798;2023-11-21T07:24:56;3.10;;;2.40;;
12687;SDS011;6408;59.388;17.798;2023-11-21T07:27:26;2.30;;;2.07;;
12687;SDS011;6408;59.388;17.798;2023-11-21T07:29:53;2.17;;;1.90;;
12687;SDS011;6408;59.388;17.798;2023-11-21T07:32:21;3.33;;;2.20;;
12687;SDS011;6408;59.388;17.798;2023-11-21T07:34:48;5.00;;;2.20;;
12687;SDS011;6408;59.388;17.798;2023-11-21T07:37:15;3.30;;;2.53;;
12687;SDS011;6408;59.388;17.798;2023-11-21T07:39:46;11.03;;;4.67;;
12687;SDS011;6408;59.388;17.798;2023-11-21T07:42:31;3.43;;;2.80;;
12687;SDS011;6408;59.388;17.798;2023-11-21T07:45:01;2.13;;;1.93;;
12687;SDS011;6408;59.388;17.798;2023-11-21T07:47:31;4.10;;;2.77;;
12687;SDS011;6408;59.388;17.798;2023-11-21T07:49:59;7.47;;;4.20;;
12687;SDS011;6408;59.388;17.798;2023-11-21T07:52:39;4.07;;;2.57;;
12687;SDS011;6408;59.388;17.798;2023-11-21T07:55:06;3.57;;;2.60;;
12687;SDS011;6408;59.388;17.798;2023-11-21T07:57:43;2.90;;;2.20;;
12687;SDS011;6408;59.388;17.798;2023-11-21T08:00:12;2.77;;;2.33;;
12687;SDS011;6408;59.388;17.798;2023-11-21T08:02:42;3.17;;;2.23;;
12687;SDS011;6408;59.388;17.798;2023-11-21T08:05:13;6.63;;;3.33;;
12687;SDS011;6408;59.388;17.798;2023-11-21T08:07:41;8.20;;;4.17;;
12687;SDS011;6408;59.388;17.798;2023-11-21T08:10:09;8.20;;;3.43;;
12687;SDS011;6408;59.388;17.798;2023-11-21T08:12:38;3.00;;;2.43;;
12687;SDS011;6408;59.388;17.798;2023-11-21T08:15:21;3.63;;;2.73;;
12687;SDS011;6408;59.388;17.798;2023-11-21T08:17:50;2.77;;;2.40;;
12687;SDS011;6408;59.388;17.798;2023-11-21T08:20:20;3.10;;;2.53;;
12687;SDS011;6408;59.388;17.798;2023-11-21T08:22:50;3.87;;;2.60;;
12687;SDS011;6408;59.388;17.798;2023-11-21T08:25:19;3.60;;;2.90;;
12687;SDS011;6408;59.388;17.798;2023-11-21T08:27:47;4.83;;;3.03;;
12687;SDS011;6408;59.388;17.798;2023-11-21T08:30:14;3.93;;;2.80;;
12687;SDS011;6408;59.388;17.798;2023-11-21T08:32:50;3.67;;;3.10;;
12687;SDS011;6408;59.388;17.798;2023-11-21T08:35:19;4.60;;;2.90;;
12687;SDS011;6408;59.388;17.798;2023-11-21T08:37:54;4.80;;;3.10;;
12687;SDS011;6408;59.388;17.798;2023-11-21T08:40:25;4.60;;;2.90;;
12687;SDS011;6408;59.388;17.798;2023-11-21T08:42:52;3.97;;;3.00;;
12687;SDS011;6408;59.388;17.798;2023-11-21T08:45:20;3.67;;;3.27;;
12687;SDS011;6408;59.388;17.798;2023-11-21T08:47:53;3.80;;;3.00;;
12687;SDS011;6408;59.388;17.798;2023-11-21T08:50:22;3.63;;;2.80;;
12687;SDS011;6408;59.388;17.798;2023-11-21T08:52:51;3.33;;;2.83;;
12687;SDS011;6408;59.388;17.798;2023-11-21T08:55:20;3.53;;;2.47;;
12687;SDS011;6408;59.388;17.798;2023-11-21T08:57:48;3.77;;;3.00;;
12687;SDS011;6408;59.388;17.798;2023-11-21T09:00:16;5.17;;;3.20;;
12687;SDS011;6408;59.388;17.798;2023-11-21T09:02:46;3.30;;;2.27;;
12687;SDS011;6408;59.388;17.798;2023-11-21T09:05:17;3.60;;;3.07;;
12687;SDS011;6408;59.388;17.798;2023-11-21T09:07:56;3.63;;;2.27;;
12687;SDS011;6408;59.388;17.798;2023-11-21T09:10:24;3.03;;;2.43;;
12687;SDS011;6408;59.388;17.798;2023-11-21T09:12:54;2.87;;;2.30;;
12687;SDS011;6408;59.388;17.798;2023-11-21T09:15:26;2.40;;;2.20;;
12687;SDS011;6408;59.388;17.798;2023-11-21T09:17:57;2.87;;;2.57;;
12687;SDS011;6408;59.388;17.798;2023-11-21T09:20:31;3.37;;;2.30;;
12687;SDS011;6408;59.388;17.798;2023-11-21T09:22:59;2.00;;;1.80;;
12687;SDS011;6408;59.388;17.798;2023-11-21T09:25:26;3.47;;;2.10;;
12687;SDS011;6408;59.388;17.798;2023-11-21T09:28:07;2.90;;;1.90;;
12687;SDS011;6408;59.388;17.798;2023-11-21T09:30:37;2.33;;;2.00;;
12687;SDS011;6408;59.388;17.798;2023-11-21T09:33:04;2.87;;;2.00;;
12687;SDS011;6408;59.388;17.798;2023-11-21T09:35:40;3.33;;;2.10;;
12687;SDS011;6408;59.388;17.798;2023-11-21T09:38:10;2.33;;;2.00;;
12687;SDS011;6408;59.388;17.798;2023-11-21T09:40:39;1.83;;;1.63;;
12687;SDS011;6408;59.388;17.798;2023-11-21T09:43:07;4.03;;;1.97;;
12687;SDS011;6408;59.388;17.798;2023-11-21T09:45:44;2.00;;;1.80;;
12687;SDS011;6408;59.388;17.798;2023-11-21T09:48:13;2.60;;;1.87;;
12687;SDS011;6408;59.388;17.798;2023-11-21T09:50:43;1.97;;;1.60;;
12687;SDS011;6408;59.388;17.798;2023-11-21T09:53:20;2.23;;;2.00;;
12687;SDS011;6408;59.388;17.798;2023-11-21T09:55:53;2.73;;;1.83;;
12687;SDS011;6408;59.388;17.798;2023-11-21T09:58:25;3.03;;;1.57;;
12687;SDS011;6408;59.388;17.798;2023-11-21T10:00:55;2.20;;;1.80;;
12687;SDS011;6408;59.388;17.798;2023-11-21T10:03:31;2.87;;;1.97;;
12687;SDS011;6408;59.388;17.798;2023-11-21T10:06:07;2.80;;;1.60;;
12687;SDS011;6408;59.388;17.798;2023-11-21T10:08:39;2.83;;;1.60;;
12687;SDS011;6408;59.388;17.798;2023-11-21T10:11:08;4.17;;;1.70;;
12687;SDS011;6408;59.388;17.798;2023-11-21T10:13:40;1.87;;;1.60;;
12687;SDS011;6408;59.388;17.798;2023-11-21T10:16:08;2.03;;;1.70;;
12687;SDS011;6408;59.388;17.798;2023-11-21T10:18:44;2.23;;;1.63;;
12687;SDS011;6408;59.388;17.798;2023-11-21T10:21:15;2.20;;;1.70;;
12687;SDS011;6408;59.388;17.798;2023-11-21T10:23:44;1.97;;;1.50;;
12687;SDS011;6408;59.388;17.798;2023-11-21T10:26:12;5.03;;;1.90;;
12687;SDS011;6408;59.388;17.798;2023-11-21T10:28:41;2.67;;;2.03;;
12687;SDS011;6408;59.388;17.798;2023-11-21T10:31:22;1.90;;;1.80;;
12687;SDS011;6408;59.388;17.798;2023-11-21T10:33:49;2.23;;;1.90;;
12687;SDS011;6408;59.388;17.798;2023-11-21T10:36:26;2.87;;;2.20;;
12687;SDS011;6408;59.388;17.798;2023-11-21T10:38:54;2.30;;;2.07;;
12687;SDS011;6408;59.388;17.798;2023-11-21T10:41:22;2.80;;;2.00;;
12687;SDS011;6408;59.388;17.798;2023-11-21T10:43:52;1.93;;;1.73;;
12687;SDS011;6408;59.388;17.798;2023-11-21T10:46:22;2.30;;;2.10;;
12687;SDS011;6408;59.388;17.798;2023-11-21T10:48:53;3.10;;;2.10;;
12687;SDS011;6408;59.388;17.798;2023-11-21T10:51:21;3.33;;;2.17;;
12687;SDS011;6408;59.388;17.798;2023-11-21T10:53:51;3.27;;;2.20;;
12687;SDS011;6408;59.388;17.798;2023-11-21T10:56:19;2.53;;;2.30;;
12687;SDS011;6408;59.388;17.798;2023-11-21T10:58:50;3.60;;;2.10;;
12687;SDS011;6408;59.388;17.798;2023-11-21T11:01:21;3.03;;;2.33;;
12687;SDS011;6408;59.388;17.798;2023-11-21T11:03:54;2.90;;;2.60;;
12687;SDS011;6408;59.388;17.798;2023-11-21T11:06:22;3.03;;;2.57;;
12687;SDS011;6408;59.388;17.798;2023-11-21T11:08:54;2.40;;;2.20;;
12687;SDS011;6408;59.388;17.798;2023-11-21T11:11:22;2.93;;;2.00;;
12687;SDS011;6408;59.388;17.798;2023-11-21T11:13:51;3.80;;;2.67;;
12687;SDS011;6408;59.388;17.798;2023-11-21T11:16:20;3.07;;;2.47;;
12687;SDS011;6408;59.388;17.798;2023-11-21T11:18:53;3.43;;;2.63;;
12687;SDS011;6408;59.388;17.798;2023-11-21T11:21:26;2.73;;;2.37;;
12687;SDS011;6408;59.388;17.798;2023-11-21T11:24:09;2.97;;;2.53;;
12687;SDS011;6408;59.388;17.798;2023-11-21T11:26:57;3.57;;;2.73;;
12687;SDS011;6408;59.388;17.798;2023-11-21T11:29:35;3.70;;;2.30;;
12687;SDS011;6408;59.388;17.798;2023-11-21T11:32:12;3.37;;;2.40;;
12687;SDS011;6408;59.388;17.798;2023-11-21T11:34:48;3.20;;;2.70;;
12687;SDS011;6408;59.388;17.798;2023-11-21T11:37:23;3.97;;;2.43;;
12687;SDS011;6408;59.388;17.798;2023-11-21T11:39:52;3.37;;;2.40;;
12687;SDS011;6408;59.388;17.798;2023-11-21T11:42:21;3.80;;;2.60;;
12687;SDS011;6408;59.388;17.798;2023-11-21T11:44:53;3.87;;;2.87;;
12687;SDS011;6408;59.388;17.798;2023-11-21T11:47:25;3.50;;;2.17;;
12687;SDS011;6408;59.388;17.798;2023-11-21T11:49:58;4.50;;;3.07;;
12687;SDS011;6408;59.388;17.798;2023-11-21T11:52:32;3.20;;;2.87;;
12687;SDS011;6408;59.388;17.798;2023-11-21T11:55:03;4.10;;;2.70;;
12687;SDS011;6408;59.388;17.798;2023-11-21T11:57:31;5.70;;;3.23;;
12687;SDS011;6408;59.388;17.798;2023-11-21T12:00:14;3.97;;;2.83;;
12687;SDS011;6408;59.388;17.798;2023-11-21T12:02:44;4.00;;;3.10;;
12687;SDS011;6408;59.388;17.798;2023-11-21T12:05:16;3.93;;;3.13;;
12687;SDS011;6408;59.388;17.798;2023-11-21T12:07:48;3.53;;;2.73;;
12687;SDS011;6408;59.388;17.798;2023-11-21T12:10:22;4.27;;;3.00;;
12687;SDS011;6408;59.388;17.798;2023-11-21T12:12:54;4.30;;;3.20;;
12687;SDS011;6408;59.388;17.798;2023-11-21T12:15:23;6.90;;;3.07;;
12687;SDS011;6408;59.388;17.798;2023-11-21T12:17:54;4.67;;;2.97;;
12687;SDS011;6408;59.388;17.798;2023-11-21T12:20:21;4.00;;;3.27;;
12687;SDS011;6408;59.388;17.798;2023-11-21T12:22:52;3.50;;;3.00;;
12687;SDS011;6408;59.388;17.798;2023-11-21T12:25:24;5.37;;;3.10;;
12687;SDS011;6408;59.388;17.798;2023-11-21T12:27:54;4.60;;;3.30;;
12687;SDS011;6408;59.388;17.798;2023-11-21T12:30:26;4.40;;;3.20;;
12687;SDS011;6408;59.388;17.798;2023-11-21T12:32:57;3.77;;;2.83;;
12687;SDS011;6408;59.388;17.798;2023-11-21T12:35:26;5.07;;;3.33;;
12687;SDS011;6408;59.388;17.798;2023-11-21T12:37:57;4.43;;;3.10;;
12687;SDS011;6408;59.388;17.798;2023-11-21T12:40:26;5.17;;;3.47;;
12687;SDS011;6408;59.388;17.798;2023-11-21T12:42:55;3.70;;;3.17;;
12687;SDS011;6408;59.388;17.798;2023-11-21T12:45:24;3.37;;;2.87;;
12687;SDS011;6408;59.388;17.798;2023-11-21T12:47:54;3.70;;;2.77;;
12687;SDS011;6408;59.388;17.798;2023-11-21T12:50:25;4.20;;;3.03;;
12687;SDS011;6408;59.388;17.798;2023-11-21T12:52:58;3.43;;;3.13;;
12687;SDS011;6408;59.388;17.798;2023-11-21T12:55:31;6.00;;;3.00;;
12687;SDS011;6408;59.388;17.798;2023-11-21T12:58:02;3.67;;;2.83;;
12687;SDS011;6408;59.388;17.798;2023-11-21T13:00:34;3.97;;;3.10;;
12687;SDS011;6408;59.388;17.798;2023-11-21T13:03:04;3.10;;;2.77;;
12687;SDS011;6408;59.388;17.798;2023-11-21T13:05:33;4.07;;;2.70;;
12687;SDS011;6408;59.388;17.798;2023-11-21T13:08:05;4.97;;;2.83;;
12687;SDS011;6408;59.388;17.798;2023-11-21T13:10:36;5.43;;;3.03;;
12687;SDS011;6408;59.388;17.798;2023-11-21T13:13:04;4.00;;;2.80;;
12687;SDS011;6408;59.388;17.798;2023-11-21T13:15:34;4.60;;;2.90;;
12687;SDS011;6408;59.388;17.798;2023-11-21T13:18:08;4.03;;;3.10;;
12687;SDS011;6408;59.388;17.798;2023-11-21T13:20:37;5.03;;;3.60;;
12687;SDS011;6408;59.388;17.798;2023-11-21T13:23:07;3.73;;;3.07;;
12687;SDS011;6408;59.388;17.798;2023-11-21T13:25:42;4.27;;;2.97;;
12687;SDS011;6408;59.388;17.798;2023-11-21T13:28:10;5.37;;;3.20;;
12687;SDS011;6408;59.388;17.798;2023-11-21T13:30:40;3.30;;;2.83;;
12687;SDS011;6408;59.388;17.798;2023-11-21T13:33:09;2.57;;;2.00;;
12687;SDS011;6408;59.388;17.798;2023-11-21T13:35:43;2.00;;;1.70;;
12687;SDS011;6408;59.388;17.798;2023-11-21T13:38:17;3.93;;;1.60;;
12687;SDS011;6408;59.388;17.798;2023-11-21T13:40:50;2.53;;;1.70;;
12687;SDS011;6408;59.388;17.798;2023-11-21T13:43:24;1.80;;;1.50;;
12687;SDS011;6408;59.388;17.798;2023-11-21T13:45:59;2.43;;;1.90;;
12687;SDS011;6408;59.388;17.798;2023-11-21T13:48:33;3.93;;;1.77;;
12687;SDS011;6408;59.388;17.798;2023-11-21T13:51:07;2.17;;;1.97;;
12687;SDS011;6408;59.388;17.798;2023-11-21T13:53:42;2.97;;;2.00;;
12687;SDS011;6408;59.388;17.798;2023-11-21T13:56:16;2.73;;;1.90;;
12687;SDS011;6408;59.388;17.798;2023-11-21T13:58:49;2.30;;;1.80;;
12687;SDS011;6408;59.388;17.798;2023-11-21T14:01:17;3.07;;;2.10;;
12687;SDS011;6408;59.388;17.798;2023-11-21T14:04:07;5.03;;;3.10;;
12687;SDS011;6408;59.388;17.798;2023-11-21T14:06:44;4.03;;;3.03;;
12687;SDS011;6408;59.388;17.798;2023-11-21T14:09:14;3.77;;;2.90;;
12687;SDS011;6408;59.388;17.798;2023-11-21T14:11:50;2.80;;;2.27;;
12687;SDS011;6408;59.388;17.798;2023-11-21T14:14:19;3.20;;;2.33;;
12687;SDS011;6408;59.388;17.798;2023-11-21T14:16:50;2.63;;;1.87;;
12687;SDS011;6408;59.388;17.798;2023-11-21T14:19:18;1.73;;;1.60;;
12687;SDS011;6408;59.388;17.798;2023-11-21T14:21:46;2.40;;;2.03;;
12687;SDS011;6408;59.388;17.798;2023-11-21T14:24:16;2.13;;;1.70;;
12687;SDS011;6408;59.388;17.798;2023-11-21T14:26:44;3.20;;;2.00;;
12687;SDS011;6408;59.388;17.798;2023-11-21T14:29:17;2.47;;;1.57;;
12687;SDS011;6408;59.388;17.798;2023-11-21T14:31:49;2.20;;;1.90;;
12687;SDS011;6408;59.388;17.798;2023-11-21T14:34:21;2.03;;;1.60;;
12687;SDS011;6408;59.388;17.798;2023-11-21T14:36:51;2.00;;;1.80;;
12687;SDS011;6408;59.388;17.798;2023-11-21T14:39:20;2.10;;;1.70;;
12687;SDS011;6408;59.388;17.798;2023-11-21T14:41:49;2.00;;;1.80;;
12687;SDS011;6408;59.388;17.798;2023-11-21T14:44:23;4.53;;;2.23;;
12687;SDS011;6408;59.388;17.798;2023-11-21T14:46:54;2.50;;;1.97;;
12687;SDS011;6408;59.388;17.798;2023-11-21T14:49:26;2.67;;;2.13;;
12687;SDS011;6408;59.388;17.798;2023-11-21T14:52:02;5.20;;;2.10;;
12687;SDS011;6408;59.388;17.798;2023-11-21T14:54:43;2.80;;;1.77;;
12687;SDS011;6408;59.388;17.798;2023-11-21T14:57:13;2.43;;;1.83;;
12687;SDS011;6408;59.388;17.798;2023-11-21T14:59:47;2.23;;;1.93;;
12687;SDS011;6408;59.388;17.798;2023-11-21T15:02:22;2.77;;;2.37;;
12687;SDS011;6408;59.388;17.798;2023-11-21T15:05:09;3.33;;;2.60;;
12687;SDS011;6408;59.388;17.798;2023-11-21T15:07:41;3.03;;;2.67;;
12687;SDS011;6408;59.388;17.798;2023-11-21T15:10:10;2.87;;;2.47;;
12687;SDS011;6408;59.388;17.798;2023-11-21T15:12:39;3.07;;;2.50;;
12687;SDS011;6408;59.388;17.798;2023-11-21T15:15:12;2.70;;;2.00;;
12687;SDS011;6408;59.388;17.798;2023-11-21T15:17:47;2.67;;;1.90;;
12687;SDS011;6408;59.388;17.798;2023-11-21T15:20:16;2.10;;;1.90;;